sensor_id;sensor_type;location;lat;lon;timestamp;temperature;humidity
16907;DHT22;8570;52.380;4.654;2022-09-24T00:00:55;14.50;99.90
16907;DHT22;8570;52.380;4.654;2022-09-24T00:06:00;14.60;99.90
16907;DHT22;8570;52.380;4.654;2022-09-24T00:11:05;14.60;99.90
16907;DHT22;8570;52.380;4.654;2022-09-24T00:16:09;14.60;99.90
16907;DHT22;8570;52.380;4.654;2022-09-24T00:21:15;14.60;99.90
16907;DHT22;8570;52.380;4.654;2022-09-24T00:26:17;14.60;99.90
16907;DHT22;8570;52.380;4.654;2022-09-24T00:31:37;14.60;99.90
16907;DHT22;8570;52.380;4.654;2022-09-24T00:36:40;14.60;99.90
16907;DHT22;8570;52.380;4.654;2022-09-24T00:41:42;14.60;99.90
16907;DHT22;8570;52.380;4.654;2022-09-24T00:46:48;14.60;99.90
16907;DHT22;8570;52.380;4.654;2022-09-24T00:51:52;14.60;99.90
16907;DHT22;8570;52.380;4.654;2022-09-24T00:56:56;14.60;99.90
16907;DHT22;8570;52.380;4.654;2022-09-24T01:01:59;14.60;99.90
16907;DHT22;8570;52.380;4.654;2022-09-24T01:07:06;14.60;99.90
16907;DHT22;8570;52.380;4.654;2022-09-24T01:12:14;14.60;99.90
16907;DHT22;8570;52.380;4.654;2022-09-24T01:17:23;14.60;99.90
16907;DHT22;8570;52.380;4.654;2022-09-24T01:22:39;14.50;99.90
16907;DHT22;8570;52.380;4.654;2022-09-24T01:27:53;14.50;99.90
16907;DHT22;8570;52.380;4.654;2022-09-24T01:33:03;14.50;99.90
16907;DHT22;8570;52.380;4.654;2022-09-24T01:38:09;14.40;99.90
16907;DHT22;8570;52.380;4.654;2022-09-24T01:43:14;14.40;99.90
16907;DHT22;8570;52.380;4.654;2022-09-24T01:48:18;14.50;99.90
16907;DHT22;8570;52.380;4.654;2022-09-24T01:53:27;14.50;99.90
16907;DHT22;8570;52.380;4.654;2022-09-24T01:58:33;14.50;99.90
16907;DHT22;8570;52.380;4.654;2022-09-24T02:03:43;14.50;99.90
16907;DHT22;8570;52.380;4.654;2022-09-24T02:08:47;14.60;99.90
16907;DHT22;8570;52.380;4.654;2022-09-24T02:13:55;14.60;99.90
16907;DHT22;8570;52.380;4.654;2022-09-24T02:19:04;14.50;99.90
16907;DHT22;8570;52.380;4.654;2022-09-24T02:24:09;14.50;99.90
16907;DHT22;8570;52.380;4.654;2022-09-24T02:29:12;14.50;99.90
16907;DHT22;8570;52.380;4.654;2022-09-24T02:34:18;14.50;99.90
16907;DHT22;8570;52.380;4.654;2022-09-24T02:39:25;14.50;99.90
16907;DHT22;8570;52.380;4.654;2022-09-24T02:44:27;14.50;99.90
16907;DHT22;8570;52.380;4.654;2022-09-24T02:49:32;14.60;99.90
16907;DHT22;8570;52.380;4.654;2022-09-24T02:54:34;14.60;99.90
16907;DHT22;8570;52.380;4.654;2022-09-24T02:59:36;14.60;99.90
16907;DHT22;8570;52.380;4.654;2022-09-24T03:04:39;14.60;99.90
16907;DHT22;8570;52.380;4.654;2022-09-24T03:09:41;14.60;99.90
16907;DHT22;8570;52.380;4.654;2022-09-24T03:14:43;14.60;99.90
16907;DHT22;8570;52.380;4.654;2022-09-24T03:19:49;14.60;99.90
16907;DHT22;8570;52.380;4.654;2022-09-24T03:24:51;14.70;99.90
16907;DHT22;8570;52.380;4.654;2022-09-24T03:29:54;14.70;99.90
16907;DHT22;8570;52.380;4.654;2022-09-24T03:35:15;14.70;99.90
16907;DHT22;8570;52.380;4.654;2022-09-24T03:40:17;14.70;99.90
16907;DHT22;8570;52.380;4.654;2022-09-24T03:45:18;14.70;99.90
16907;DHT22;8570;52.380;4.654;2022-09-24T03:50:22;14.80;99.90
16907;DHT22;8570;52.380;4.654;2022-09-24T03:55:24;14.80;99.90
16907;DHT22;8570;52.380;4.654;2022-09-24T04:00:26;14.80;99.90
16907;DHT22;8570;52.380;4.654;2022-09-24T04:05:29;14.70;99.90
16907;DHT22;8570;52.380;4.654;2022-09-24T04:10:31;14.70;99.90
16907;DHT22;8570;52.380;4.654;2022-09-24T04:15:33;14.70;99.90
16907;DHT22;8570;52.380;4.654;2022-09-24T04:20:36;14.70;99.90
16907;DHT22;8570;52.380;4.654;2022-09-24T04:25:38;14.70;99.90
16907;DHT22;8570;52.380;4.654;2022-09-24T04:30:41;14.60;99.90
16907;DHT22;8570;52.380;4.654;2022-09-24T04:35:44;14.60;99.90
16907;DHT22;8570;52.380;4.654;2022-09-24T04:40:46;14.50;99.90
16907;DHT22;8570;52.380;4.654;2022-09-24T04:45:48;14.50;99.90
16907;DHT22;8570;52.380;4.654;2022-09-24T04:50:52;14.50;99.90
16907;DHT22;8570;52.380;4.654;2022-09-24T04:55:54;14.50;99.90
16907;DHT22;8570;52.380;4.654;2022-09-24T05:00:56;14.50;99.90
16907;DHT22;8570;52.380;4.654;2022-09-24T05:05:59;14.50;99.90
16907;DHT22;8570;52.380;4.654;2022-09-24T05:11:01;14.40;99.90
16907;DHT22;8570;52.380;4.654;2022-09-24T05:16:04;14.40;99.90
16907;DHT22;8570;52.380;4.654;2022-09-24T05:21:09;14.40;99.90
16907;DHT22;8570;52.380;4.654;2022-09-24T05:26:12;14.50;99.90
16907;DHT22;8570;52.380;4.654;2022-09-24T05:31:31;14.50;99.90
16907;DHT22;8570;52.380;4.654;2022-09-24T05:36:35;14.50;99.90
16907;DHT22;8570;52.380;4.654;2022-09-24T05:41:38;14.40;99.90
16907;DHT22;8570;52.380;4.654;2022-09-24T05:46:40;14.40;99.90
16907;DHT22;8570;52.380;4.654;2022-09-24T05:51:43;14.40;99.90
16907;DHT22;8570;52.380;4.654;2022-09-24T05:56:45;14.40;99.90
16907;DHT22;8570;52.380;4.654;2022-09-24T06:01:47;14.40;99.90
16907;DHT22;8570;52.380;4.654;2022-09-24T06:06:50;14.40;99.90
16907;DHT22;8570;52.380;4.654;2022-09-24T06:11:53;14.40;99.90
16907;DHT22;8570;52.380;4.654;2022-09-24T06:16:56;14.40;99.90
16907;DHT22;8570;52.380;4.654;2022-09-24T06:21:59;14.40;99.90
16907;DHT22;8570;52.380;4.654;2022-09-24T06:27:01;14.40;99.90
16907;DHT22;8570;52.380;4.654;2022-09-24T06:32:05;14.40;99.90
16907;DHT22;8570;52.380;4.654;2022-09-24T06:37:09;14.40;99.90
16907;DHT22;8570;52.380;4.654;2022-09-24T06:42:12;14.40;99.90
16907;DHT22;8570;52.380;4.654;2022-09-24T06:47:14;14.40;99.90
16907;DHT22;8570;52.380;4.654;2022-09-24T06:52:17;14.40;99.90
16907;DHT22;8570;52.380;4.654;2022-09-24T06:57:20;14.40;99.90
16907;DHT22;8570;52.380;4.654;2022-09-24T07:02:21;14.40;99.90
16907;DHT22;8570;52.380;4.654;2022-09-24T07:07:25;14.50;99.90
16907;DHT22;8570;52.380;4.654;2022-09-24T07:12:32;14.50;99.90
16907;DHT22;8570;52.380;4.654;2022-09-24T07:17:34;14.60;99.90
16907;DHT22;8570;52.380;4.654;2022-09-24T07:22:38;14.60;99.90
16907;DHT22;8570;52.380;4.654;2022-09-24T07:27:40;14.60;99.90
16907;DHT22;8570;52.380;4.654;2022-09-24T07:32:42;14.60;99.90
16907;DHT22;8570;52.380;4.654;2022-09-24T07:37:45;14.60;99.90
16907;DHT22;8570;52.380;4.654;2022-09-24T07:42:47;14.60;99.90
16907;DHT22;8570;52.380;4.654;2022-09-24T07:47:56;14.60;99.90
16907;DHT22;8570;52.380;4.654;2022-09-24T07:53:00;14.70;99.90
16907;DHT22;8570;52.380;4.654;2022-09-24T07:58:02;14.70;99.90
16907;DHT22;8570;52.380;4.654;2022-09-24T08:03:04;14.70;99.90
16907;DHT22;8570;52.380;4.654;2022-09-24T08:08:08;14.80;99.90
16907;DHT22;8570;52.380;4.654;2022-09-24T08:13:10;14.80;99.90
16907;DHT22;8570;52.380;4.654;2022-09-24T08:18:12;14.80;99.90
16907;DHT22;8570;52.380;4.654;2022-09-24T08:23:15;14.90;99.90
16907;DHT22;8570;52.380;4.654;2022-09-24T08:28:17;14.90;99.90
16907;DHT22;8570;52.380;4.654;2022-09-24T08:33:19;14.90;99.90
16907;DHT22;8570;52.380;4.654;2022-09-24T08:38:22;15.00;99.90
16907;DHT22;8570;52.380;4.654;2022-09-24T08:43:36;15.10;99.90
16907;DHT22;8570;52.380;4.654;2022-09-24T08:48:42;15.10;99.90
16907;DHT22;8570;52.380;4.654;2022-09-24T08:53:51;15.20;99.90
16907;DHT22;8570;52.380;4.654;2022-09-24T08:58:58;15.30;99.90
16907;DHT22;8570;52.380;4.654;2022-09-24T09:04:06;15.40;99.90
16907;DHT22;8570;52.380;4.654;2022-09-24T09:09:15;15.50;99.90
16907;DHT22;8570;52.380;4.654;2022-09-24T09:14:20;15.60;99.90
16907;DHT22;8570;52.380;4.654;2022-09-24T09:19:27;15.70;99.90
16907;DHT22;8570;52.380;4.654;2022-09-24T09:24:37;15.80;99.90
16907;DHT22;8570;52.380;4.654;2022-09-24T09:29:44;15.80;99.90
16907;DHT22;8570;52.380;4.654;2022-09-24T09:34:53;15.80;99.90
16907;DHT22;8570;52.380;4.654;2022-09-24T09:40:12;15.80;99.90
16907;DHT22;8570;52.380;4.654;2022-09-24T09:45:24;15.90;99.90
16907;DHT22;8570;52.380;4.654;2022-09-24T09:50:36;15.90;99.90
16907;DHT22;8570;52.380;4.654;2022-09-24T09:55:41;15.90;99.90
16907;DHT22;8570;52.380;4.654;2022-09-24T10:00:44;15.90;99.90
16907;DHT22;8570;52.380;4.654;2022-09-24T10:05:52;15.90;99.90
16907;DHT22;8570;52.380;4.654;2022-09-24T10:10:57;15.90;99.90
16907;DHT22;8570;52.380;4.654;2022-09-24T10:16:02;15.90;99.90
16907;DHT22;8570;52.380;4.654;2022-09-24T10:21:07;16.00;99.90
16907;DHT22;8570;52.380;4.654;2022-09-24T10:26:13;15.90;99.90
16907;DHT22;8570;52.380;4.654;2022-09-24T10:31:17;15.90;99.90
16907;DHT22;8570;52.380;4.654;2022-09-24T10:36:22;15.80;99.90
16907;DHT22;8570;52.380;4.654;2022-09-24T10:41:27;15.80;99.90
16907;DHT22;8570;52.380;4.654;2022-09-24T10:46:50;15.70;99.90
16907;DHT22;8570;52.380;4.654;2022-09-24T10:52:01;15.70;99.90
16907;DHT22;8570;52.380;4.654;2022-09-24T10:57:14;15.70;99.90
16907;DHT22;8570;52.380;4.654;2022-09-24T11:08:14;15.70;99.90
16907;DHT22;8570;52.380;4.654;2022-09-24T11:13:25;15.80;99.90
16907;DHT22;8570;52.380;4.654;2022-09-24T11:18:39;15.90;99.90
16907;DHT22;8570;52.380;4.654;2022-09-24T11:23:56;16.00;99.90
16907;DHT22;8570;52.380;4.654;2022-09-24T11:29:14;16.20;99.90
16907;DHT22;8570;52.380;4.654;2022-09-24T11:34:36;16.30;99.90
16907;DHT22;8570;52.380;4.654;2022-09-24T11:39:48;16.40;99.90
16907;DHT22;8570;52.380;4.654;2022-09-24T11:45:16;16.60;99.90
16907;DHT22;8570;52.380;4.654;2022-09-24T11:50:32;16.60;99.90
16907;DHT22;8570;52.380;4.654;2022-09-24T11:55:38;16.70;99.90
16907;DHT22;8570;52.380;4.654;2022-09-24T12:00:48;16.80;99.90
16907;DHT22;8570;52.380;4.654;2022-09-24T12:05:56;16.90;99.90
16907;DHT22;8570;52.380;4.654;2022-09-24T12:11:07;16.90;99.90
16907;DHT22;8570;52.380;4.654;2022-09-24T12:16:13;17.00;99.90
16907;DHT22;8570;52.380;4.654;2022-09-24T12:21:17;17.10;99.90
16907;DHT22;8570;52.380;4.654;2022-09-24T12:26:22;17.30;99.90
16907;DHT22;8570;52.380;4.654;2022-09-24T12:31:29;17.50;99.90
16907;DHT22;8570;52.380;4.654;2022-09-24T12:36:56;17.50;99.90
16907;DHT22;8570;52.380;4.654;2022-09-24T12:42:01;17.50;99.90
16907;DHT22;8570;52.380;4.654;2022-09-24T12:47:14;17.60;99.90
16907;DHT22;8570;52.380;4.654;2022-09-24T12:52:23;17.70;99.90
16907;DHT22;8570;52.380;4.654;2022-09-24T12:57:26;17.80;99.90
16907;DHT22;8570;52.380;4.654;2022-09-24T13:02:45;17.90;99.90
16907;DHT22;8570;52.380;4.654;2022-09-24T13:07:56;18.00;99.90
16907;DHT22;8570;52.380;4.654;2022-09-24T13:12:59;18.20;99.90
16907;DHT22;8570;52.380;4.654;2022-09-24T13:18:12;18.40;99.90
16907;DHT22;8570;52.380;4.654;2022-09-24T13:23:30;18.50;99.90
16907;DHT22;8570;52.380;4.654;2022-09-24T13:28:49;18.60;99.90
16907;DHT22;8570;52.380;4.654;2022-09-24T13:33:57;18.50;99.90
16907;DHT22;8570;52.380;4.654;2022-09-24T13:39:06;18.50;99.90
16907;DHT22;8570;52.380;4.654;2022-09-24T13:44:14;18.40;99.90
16907;DHT22;8570;52.380;4.654;2022-09-24T13:49:20;18.30;99.90
16907;DHT22;8570;52.380;4.654;2022-09-24T13:54:28;18.20;99.90
16907;DHT22;8570;52.380;4.654;2022-09-24T13:59:33;18.10;99.90
16907;DHT22;8570;52.380;4.654;2022-09-24T14:04:36;18.10;99.90
16907;DHT22;8570;52.380;4.654;2022-09-24T14:09:41;18.00;99.90
16907;DHT22;8570;52.380;4.654;2022-09-24T14:14:52;18.00;99.90
16907;DHT22;8570;52.380;4.654;2022-09-24T14:19:56;18.20;99.90
16907;DHT22;8570;52.380;4.654;2022-09-24T14:25:01;18.30;99.90
16907;DHT22;8570;52.380;4.654;2022-09-24T14:30:07;18.30;99.90
16907;DHT22;8570;52.380;4.654;2022-09-24T14:35:17;18.30;99.90
16907;DHT22;8570;52.380;4.654;2022-09-24T14:40:22;18.30;99.90
16907;DHT22;8570;52.380;4.654;2022-09-24T14:45:27;18.30;99.90
16907;DHT22;8570;52.380;4.654;2022-09-24T14:50:36;18.20;99.90
16907;DHT22;8570;52.380;4.654;2022-09-24T14:55:40;18.20;99.90
16907;DHT22;8570;52.380;4.654;2022-09-24T15:00:47;18.30;99.90
16907;DHT22;8570;52.380;4.654;2022-09-24T15:05:51;18.30;99.90
16907;DHT22;8570;52.380;4.654;2022-09-24T15:11:03;18.20;99.90
16907;DHT22;8570;52.380;4.654;2022-09-24T15:16:17;18.10;99.90
16907;DHT22;8570;52.380;4.654;2022-09-24T15:21:20;18.10;99.90
16907;DHT22;8570;52.380;4.654;2022-09-24T15:26:26;18.00;99.90
16907;DHT22;8570;52.380;4.654;2022-09-24T15:31:29;18.00;99.90
16907;DHT22;8570;52.380;4.654;2022-09-24T15:36:32;17.90;99.90
16907;DHT22;8570;52.380;4.654;2022-09-24T15:41:34;17.90;99.90
16907;DHT22;8570;52.380;4.654;2022-09-24T15:46:35;17.80;99.90
16907;DHT22;8570;52.380;4.654;2022-09-24T15:51:39;17.70;99.90
16907;DHT22;8570;52.380;4.654;2022-09-24T15:56:41;17.60;99.90
16907;DHT22;8570;52.380;4.654;2022-09-24T16:01:43;17.60;99.90
16907;DHT22;8570;52.380;4.654;2022-09-24T16:06:46;17.50;99.90
16907;DHT22;8570;52.380;4.654;2022-09-24T16:11:49;17.40;99.90
16907;DHT22;8570;52.380;4.654;2022-09-24T16:16:50;17.40;99.90
16907;DHT22;8570;52.380;4.654;2022-09-24T16:21:54;17.30;99.90
16907;DHT22;8570;52.380;4.654;2022-09-24T16:26:56;17.30;99.90
16907;DHT22;8570;52.380;4.654;2022-09-24T16:31:58;17.20;99.90
16907;DHT22;8570;52.380;4.654;2022-09-24T16:37:03;17.10;99.90
16907;DHT22;8570;52.380;4.654;2022-09-24T16:42:04;17.00;99.90
16907;DHT22;8570;52.380;4.654;2022-09-24T16:47:06;16.80;99.90
16907;DHT22;8570;52.380;4.654;2022-09-24T16:52:09;16.80;99.90
16907;DHT22;8570;52.380;4.654;2022-09-24T16:57:11;16.70;99.90
16907;DHT22;8570;52.380;4.654;2022-09-24T17:02:13;16.50;99.90
16907;DHT22;8570;52.380;4.654;2022-09-24T17:07:17;16.40;99.90
16907;DHT22;8570;52.380;4.654;2022-09-24T17:12:19;16.30;99.90
16907;DHT22;8570;52.380;4.654;2022-09-24T17:17:21;16.20;99.90
16907;DHT22;8570;52.380;4.654;2022-09-24T17:22:24;16.10;99.90
16907;DHT22;8570;52.380;4.654;2022-09-24T17:27:27;15.90;99.90
16907;DHT22;8570;52.380;4.654;2022-09-24T17:32:29;15.80;99.90
16907;DHT22;8570;52.380;4.654;2022-09-24T17:37:32;15.70;99.90
16907;DHT22;8570;52.380;4.654;2022-09-24T17:42:34;15.60;99.90
16907;DHT22;8570;52.380;4.654;2022-09-24T17:47:36;15.50;99.90
16907;DHT22;8570;52.380;4.654;2022-09-24T17:52:53;15.50;99.90
16907;DHT22;8570;52.380;4.654;2022-09-24T17:57:55;15.40;99.90
16907;DHT22;8570;52.380;4.654;2022-09-24T18:02:57;15.40;99.90
16907;DHT22;8570;52.380;4.654;2022-09-24T18:08:00;15.30;99.90
16907;DHT22;8570;52.380;4.654;2022-09-24T18:13:03;15.20;99.90
16907;DHT22;8570;52.380;4.654;2022-09-24T18:18:05;15.10;99.90
16907;DHT22;8570;52.380;4.654;2022-09-24T18:23:08;15.10;99.90
16907;DHT22;8570;52.380;4.654;2022-09-24T18:28:10;15.00;99.90
16907;DHT22;8570;52.380;4.654;2022-09-24T18:33:13;15.00;99.90
16907;DHT22;8570;52.380;4.654;2022-09-24T18:38:17;14.90;99.90
16907;DHT22;8570;52.380;4.654;2022-09-24T18:43:20;14.80;99.90
16907;DHT22;8570;52.380;4.654;2022-09-24T18:48:23;14.80;99.90
16907;DHT22;8570;52.380;4.654;2022-09-24T18:53:27;14.70;99.90
16907;DHT22;8570;52.380;4.654;2022-09-24T18:58:31;14.60;99.90
16907;DHT22;8570;52.380;4.654;2022-09-24T19:03:35;14.50;99.90
16907;DHT22;8570;52.380;4.654;2022-09-24T19:08:41;14.50;99.90
16907;DHT22;8570;52.380;4.654;2022-09-24T19:13:47;14.40;99.90
16907;DHT22;8570;52.380;4.654;2022-09-24T19:18:50;14.40;99.90
16907;DHT22;8570;52.380;4.654;2022-09-24T19:23:55;14.30;99.90
16907;DHT22;8570;52.380;4.654;2022-09-24T19:28:58;14.30;99.90
16907;DHT22;8570;52.380;4.654;2022-09-24T19:34:00;14.30;99.90
16907;DHT22;8570;52.380;4.654;2022-09-24T19:39:04;14.30;99.90
16907;DHT22;8570;52.380;4.654;2022-09-24T19:44:06;14.30;99.90
16907;DHT22;8570;52.380;4.654;2022-09-24T19:49:08;14.30;99.90
16907;DHT22;8570;52.380;4.654;2022-09-24T19:54:12;14.30;99.90
16907;DHT22;8570;52.380;4.654;2022-09-24T19:59:16;14.20;99.90
16907;DHT22;8570;52.380;4.654;2022-09-24T20:04:18;14.10;99.90
16907;DHT22;8570;52.380;4.654;2022-09-24T20:09:22;14.10;99.90
16907;DHT22;8570;52.380;4.654;2022-09-24T20:14:24;14.00;99.90
16907;DHT22;8570;52.380;4.654;2022-09-24T20:19:26;13.90;99.90
16907;DHT22;8570;52.380;4.654;2022-09-24T20:24:29;13.90;99.90
16907;DHT22;8570;52.380;4.654;2022-09-24T20:29:31;13.80;99.90
16907;DHT22;8570;52.380;4.654;2022-09-24T20:34:34;13.70;99.90
16907;DHT22;8570;52.380;4.654;2022-09-24T20:39:37;13.70;99.90
16907;DHT22;8570;52.380;4.654;2022-09-24T20:44:39;13.60;99.90
16907;DHT22;8570;52.380;4.654;2022-09-24T20:49:41;13.50;99.90
16907;DHT22;8570;52.380;4.654;2022-09-24T20:54:47;13.50;99.90
16907;DHT22;8570;52.380;4.654;2022-09-24T20:59:49;13.40;99.90
16907;DHT22;8570;52.380;4.654;2022-09-24T21:04:51;13.30;99.90
16907;DHT22;8570;52.380;4.654;2022-09-24T21:09:54;13.30;99.90
16907;DHT22;8570;52.380;4.654;2022-09-24T21:14:56;13.40;99.90
16907;DHT22;8570;52.380;4.654;2022-09-24T21:20:04;13.30;99.90
16907;DHT22;8570;52.380;4.654;2022-09-24T21:25:08;13.40;99.90
16907;DHT22;8570;52.380;4.654;2022-09-24T21:30:10;13.40;99.90
16907;DHT22;8570;52.380;4.654;2022-09-24T21:35:13;13.40;99.90
16907;DHT22;8570;52.380;4.654;2022-09-24T21:40:17;13.30;99.90
16907;DHT22;8570;52.380;4.654;2022-09-24T21:45:18;13.30;99.90
16907;DHT22;8570;52.380;4.654;2022-09-24T21:50:20;13.20;99.90
16907;DHT22;8570;52.380;4.654;2022-09-24T21:55:23;13.10;99.90
16907;DHT22;8570;52.380;4.654;2022-09-24T22:00:25;13.00;99.90
16907;DHT22;8570;52.380;4.654;2022-09-24T22:05:27;13.00;99.90
16907;DHT22;8570;52.380;4.654;2022-09-24T22:10:33;12.90;99.90
16907;DHT22;8570;52.380;4.654;2022-09-24T22:15:36;12.90;99.90
16907;DHT22;8570;52.380;4.654;2022-09-24T22:20:43;12.80;99.90
16907;DHT22;8570;52.380;4.654;2022-09-24T22:25:47;12.70;99.90
16907;DHT22;8570;52.380;4.654;2022-09-24T22:30:55;12.70;99.90
16907;DHT22;8570;52.380;4.654;2022-09-24T22:35:58;12.60;99.90
16907;DHT22;8570;52.380;4.654;2022-09-24T22:41:05;12.60;99.90
16907;DHT22;8570;52.380;4.654;2022-09-24T22:46:09;12.50;99.90
16907;DHT22;8570;52.380;4.654;2022-09-24T22:51:11;12.50;99.90
16907;DHT22;8570;52.380;4.654;2022-09-24T22:56:17;12.40;99.90
16907;DHT22;8570;52.380;4.654;2022-09-24T23:01:21;12.40;99.90
16907;DHT22;8570;52.380;4.654;2022-09-24T23:06:24;12.30;99.90
16907;DHT22;8570;52.380;4.654;2022-09-24T23:11:29;12.30;99.90
16907;DHT22;8570;52.380;4.654;2022-09-24T23:16:33;12.40;99.90
16907;DHT22;8570;52.380;4.654;2022-09-24T23:21:35;12.40;99.90
16907;DHT22;8570;52.380;4.654;2022-09-24T23:26:38;12.40;99.90
16907;DHT22;8570;52.380;4.654;2022-09-24T23:31:40;12.50;99.90
16907;DHT22;8570;52.380;4.654;2022-09-24T23:36:42;12.50;99.90
16907;DHT22;8570;52.380;4.654;2022-09-24T23:41:47;12.40;99.90
16907;DHT22;8570;52.380;4.654;2022-09-24T23:46:48;12.40;99.90
16907;DHT22;8570;52.380;4.654;2022-09-24T23:51:50;12.30;99.90
16907;DHT22;8570;52.380;4.654;2022-09-24T23:56:54;12.20;99.90
